Palm Bay, FL (32907)

12:18 AM EDT on October 25, 2014 (GMT -0400)
Vermont Street Weather | Change Station
CLOSE
Current Station
Personal Weather Station
Location: Palm Bay, FL
Elevation: 25 ft
Nearby Weather Stations

Elev 25 ft 28.02 °N, 80.66 °W | Updated 8 minutes ago

Overcast
Overcast
72.3 °F
Feels Like 76 °F
N
0.0
Wind Variable Wind from NNW
Gusts 0.0 mph

Today
High -- | Low -- °F
--% Chance of Precip.
Yesterday
High -- | Low -- °F
Precip. -- in
7:29 AM 6:43 PM
New Moon, 2% visible
Pressure 29.94 in
Visibility 10.0 miles
Clouds Mostly Cloudy 4900 ft
Heat Index 76 °F
Dew Point 59 °F
Humidity 63%
Rainfall 0.00 in
Snow Depth Not available.
UV 0 out of 12
Pollen 5.70 out of 12
Air Quality Not available.
Flu Activity Local Activity
METAR KMLB 250353Z 36009KT 10SM BKN049 23/15 A2994 RMK AO2 SLP138 T02330150

More Conditions Fewer Conditions

Pressure 29.94 in
Visibility 10.0 miles
Clouds Mostly Cloudy 4900 ft
Heat Index 76 °F
Dew Point 59 °F
Humidity 63%
Rainfall 0.00 in
Snow Depth Not available.
UV 0 out of 12
Pollen 5.70 out of 12
Air Quality Not available.
Flu Activity Local Activity
METAR KMLB 250353Z 36009KT 10SM BKN049 23/15 A2994 RMK AO2 SLP138 T02330150

More Conditions Fewer Conditions

Nowcast | as of 10:46 PM EDT on October 24, 2014

Expect a cool evening under partly cloudy skies. A little more cloud cover is possible along the space and Treasure Coast tonight... however no rain is forecast. Lows will range from the upper 50s to lower 60s by daybreak. Additional details...including graphics are available online at: http://www.Srh.NOAA.Gov/mlb/blog.Php

×

10-Day Weather Forecast

Almanac

Astronomy

Oct. 25, 2014 Rise Set
Actual Time 7:29 AM EDT 6:43 PM EDT
Civil Twilight 7:05 AM EDT 7:07 PM EDT
Nautical Twilight 6:37 AM EDT 7:35 PM EDT
Astronomical Twilight 6:10 AM EDT 8:02 PM EDT
Moon 9:00 AM EDT 8:12 PM EDT
Length of Visible Light 12h 02m
Length of Day
11h 14m
Tomorrow will be 1m 31s shorter.
New Moon, 2% of the Moon is Illuminated
Today
New Moon
Oct 30
First Quarter
Nov 6
Full
Nov 14
Last Quarter
Nov 22
New

Yesterday's Extremes

State Highs State Lows

Community

WunderPhotos

Upload Photos

1,764,779 photos uploaded!

Nearby

Snow Depth

Station Depth Elevation
No new snow has been reported.

Earthquake Activity

City Distance Mag. Time & Date
No recent earthquake activity has been reported nearby.
Minimum magnitude displayed is 2.5.

Coastal Water Temperatures

Place Temperature
Trident Pier, FL 79.0 °F
Fort Myers, FL 78.1 °F
Lake Worth, FL 79.0 °F

Nearby Weather Stations